Time;durP1;ratioP1;P1;durP2;ratioP2;P2;SDS_P1;SDS_P2;PMS_P1;PMS_P2;Temp;Humidity;BMP_temperature;BMP_pressure;BME280_temperature;BME280_humidity;BME280_pressure;Samples;Min_cycle;Max_cycle;Signal;HPM_P1;HPM_P2
2023/08/24 00:02:32;;;;;;;12.68;8.30;;;;;;;;;;10453238;28;20409;-94
2023/08/24 00:07:34;;;;;;;9.63;8.10;;;;;;;;;;10461461;28;20423;-94
2023/08/24 00:12:39;;;;;;;9.77;7.60;;;;;;;;;;10442261;28;20495;-94
2023/08/24 00:17:41;;;;;;;10.40;7.53;;;;;;;;;;10459005;28;20428;-94
2023/08/24 00:22:44;;;;;;;9.37;7.00;;;;;;;;;;10464600;28;20442;-95
2023/08/24 00:27:47;;;;;;;10.73;7.17;;;;;;;;;;10463618;28;20413;-94
2023/08/24 00:32:50;;;;;;;10.80;8.27;;;;;;;;;;10461156;28;20410;-94
2023/08/24 00:37:53;;;;;;;12.77;8.40;;;;;;;;;;10455410;28;20425;-94
2023/08/24 00:42:57;;;;;;;10.32;8.00;;;;;;;;;;10459791;28;20985;-94
2023/08/24 00:48:00;;;;;;;11.40;7.82;;;;;;;;;;10459917;28;20439;-95
2023/08/24 00:53:02;;;;;;;11.00;8.00;;;;;;;;;;10459905;28;20409;-93
2023/08/24 00:58:07;;;;;;;10.02;8.13;;;;;;;;;;10461824;28;20446;-94
2023/08/24 01:03:09;;;;;;;11.18;8.30;;;;;;;;;;10454545;28;20406;-95
2023/08/24 01:08:12;;;;;;;13.10;8.30;;;;;;;;;;10460698;28;20815;-95
2023/08/24 01:13:22;;;;;;;10.63;8.00;;;;;;;;;;10460633;28;20408;-93
2023/08/24 01:18:26;;;;;;;11.77;8.80;;;;;;;;;;10452518;28;20423;-95
2023/08/24 01:23:37;;;;;;;12.00;8.67;;;;;;;;;;10461147;28;20412;-95
2023/08/24 01:28:43;;;;;;;10.90;8.70;;;;;;;;;;10460747;28;20913;-95
2023/08/24 01:33:45;;;;;;;11.52;8.18;;;;;;;;;;10460102;28;20449;-94
2023/08/24 01:38:55;;;;;;;11.88;9.10;;;;;;;;;;10459833;28;20416;-94
2023/08/24 01:44:01;;;;;;;11.40;8.18;;;;;;;;;;10457481;28;20470;-95
2023/08/24 01:49:05;;;;;;;9.77;8.27;;;;;;;;;;10461696;28;20412;-95
2023/08/24 01:54:07;;;;;;;10.70;8.20;;;;;;;;;;10460936;28;20408;-94
2023/08/24 01:59:11;;;;;;;10.95;8.68;;;;;;;;;;10458567;28;20420;-94
2023/08/24 02:04:14;;;;;;;11.77;8.47;;;;;;;;;;10462615;28;20454;-95
2023/08/24 02:09:16;;;;;;;8.70;7.80;;;;;;;;;;10460840;28;20450;-94
2023/08/24 02:14:20;;;;;;;9.43;7.90;;;;;;;;;;10460513;28;20411;-94
2023/08/24 02:19:23;;;;;;;11.07;8.32;;;;;;;;;;10459908;28;20428;-94
2023/08/24 02:24:25;;;;;;;11.07;8.43;;;;;;;;;;10459938;28;20412;-95
2023/08/24 02:29:30;;;;;;;9.93;8.10;;;;;;;;;;10461662;28;20408;-94
2023/08/24 02:34:32;;;;;;;10.95;8.30;;;;;;;;;;10460289;28;20412;-94
2023/08/24 02:39:35;;;;;;;9.95;7.90;;;;;;;;;;10460202;28;20415;-94
2023/08/24 02:44:42;;;;;;;10.57;8.30;;;;;;;;;;10459350;28;20446;-94
2023/08/24 02:49:44;;;;;;;13.13;8.70;;;;;;;;;;10459326;28;20473;-94
2023/08/24 02:54:47;;;;;;;10.93;9.50;;;;;;;;;;10460729;28;20447;-94
2023/08/24 02:59:50;;;;;;;10.88;8.05;;;;;;;;;;10460371;28;20420;-94
2023/08/24 03:04:55;;;;;;;11.77;8.15;;;;;;;;;;10459542;28;20434;-94
2023/08/24 03:09:57;;;;;;;12.27;8.70;;;;;;;;;;10465202;28;20481;-95
2023/08/24 03:15:01;;;;;;;12.18;9.00;;;;;;;;;;10461936;28;20400;-94
2023/08/24 03:20:05;;;;;;;11.73;8.53;;;;;;;;;;10462353;28;20896;-94
2023/08/24 03:25:08;;;;;;;11.45;8.63;;;;;;;;;;10469494;28;20407;-94
2023/08/24 03:30:13;;;;;;;13.63;9.03;;;;;;;;;;10466529;28;20450;-94
2023/08/24 03:35:16;;;;;;;12.95;8.60;;;;;;;;;;10467617;28;20450;-94
2023/08/24 03:40:18;;;;;;;10.98;8.18;;;;;;;;;;10469613;28;20423;-94
2023/08/24 03:45:22;;;;;;;11.75;8.85;;;;;;;;;;10466697;28;20450;-94
2023/08/24 03:50:25;;;;;;;11.02;8.93;;;;;;;;;;10467884;28;20981;-93
2023/08/24 03:55:28;;;;;;;11.55;8.52;;;;;;;;;;10466336;28;20400;-94
2023/08/24 04:00:32;;;;;;;10.68;8.98;;;;;;;;;;10461071;28;20423;-95
2023/08/24 04:05:34;;;;;;;12.47;9.30;;;;;;;;;;10468584;28;20430;-94
2023/08/24 04:10:36;;;;;;;11.05;9.20;;;;;;;;;;10463628;28;20957;-94
2023/08/24 04:15:40;;;;;;;12.75;9.90;;;;;;;;;;10460400;28;20407;-94
2023/08/24 04:20:43;;;;;;;11.15;9.27;;;;;;;;;;10465974;28;20496;-95
2023/08/24 04:25:45;;;;;;;11.73;9.30;;;;;;;;;;10465448;28;20460;-95
2023/08/24 04:30:53;;;;;;;12.45;9.20;;;;;;;;;;10466218;28;20514;-96
2023/08/24 04:35:55;;;;;;;11.60;8.98;;;;;;;;;;10459666;28;20404;-93
2023/08/24 04:40:58;;;;;;;11.18;9.30;;;;;;;;;;10456764;28;20485;-94
2023/08/24 04:46:01;;;;;;;13.77;9.38;;;;;;;;;;10461777;28;20454;-94
2023/08/24 04:51:04;;;;;;;11.90;9.15;;;;;;;;;;10460453;28;20424;-95
2023/08/24 04:56:06;;;;;;;12.50;8.47;;;;;;;;;;10463640;28;20892;-95
2023/08/24 05:01:10;;;;;;;13.45;9.00;;;;;;;;;;10467486;28;20473;-95
2023/08/24 05:06:13;;;;;;;11.40;8.87;;;;;;;;;;10465488;28;20399;-94
2023/08/24 05:11:20;;;;;;;12.57;8.93;;;;;;;;;;10457323;28;20419;-95
2023/08/24 05:16:24;;;;;;;12.68;9.00;;;;;;;;;;10455398;28;20419;-94
2023/08/24 05:21:26;;;;;;;12.93;8.93;;;;;;;;;;10455709;28;20800;-94
2023/08/24 05:26:29;;;;;;;13.23;8.70;;;;;;;;;;10460751;28;20466;-94
2023/08/24 05:31:33;;;;;;;10.83;8.60;;;;;;;;;;10460589;28;20411;-95
2023/08/24 05:36:35;;;;;;;14.27;9.50;;;;;;;;;;10458944;28;20407;-95
2023/08/24 05:41:38;;;;;;;11.98;8.50;;;;;;;;;;10459760;28;20518;-94
2023/08/24 05:46:42;;;;;;;11.13;8.60;;;;;;;;;;10454472;28;20412;-95
2023/08/24 05:51:44;;;;;;;11.13;8.93;;;;;;;;;;10455334;28;20467;-95
2023/08/24 05:56:47;;;;;;;9.87;8.50;;;;;;;;;;10456924;28;20415;-95
2023/08/24 06:01:51;;;;;;;12.07;8.93;;;;;;;;;;10446825;28;20431;-95
2023/08/24 06:06:53;;;;;;;12.88;8.82;;;;;;;;;;10456225;28;20474;-94
2023/08/24 06:11:55;;;;;;;13.67;8.93;;;;;;;;;;10452407;28;20469;-94
2023/08/24 06:16:59;;;;;;;10.70;8.33;;;;;;;;;;10453274;28;20899;-93
2023/08/24 06:22:01;;;;;;;10.55;8.57;;;;;;;;;;10453647;28;20753;-94
2023/08/24 06:27:04;;;;;;;12.07;8.35;;;;;;;;;;10454161;28;20396;-94
2023/08/24 06:32:08;;;;;;;11.18;8.75;;;;;;;;;;10452948;28;20896;-94
2023/08/24 06:37:10;;;;;;;10.53;8.50;;;;;;;;;;10456491;28;20457;-94
2023/08/24 06:42:42;;;;;;;12.97;8.60;;;;;;;;;;10458178;28;20473;-96
2023/08/24 06:47:46;;;;;;;11.20;8.80;;;;;;;;;;10454617;28;20481;-93
2023/08/24 06:52:48;;;;;;;12.43;8.88;;;;;;;;;;10462807;28;20469;-95
2023/08/24 06:57:51;;;;;;;14.50;9.57;;;;;;;;;;10461040;28;20904;-94
2023/08/24 07:02:54;;;;;;;12.15;8.70;;;;;;;;;;10463174;28;20473;-95
2023/08/24 07:07:57;;;;;;;12.70;8.38;;;;;;;;;;10461440;28;20884;-95
2023/08/24 07:12:59;;;;;;;10.23;9.10;;;;;;;;;;10460996;28;20400;-94
2023/08/24 07:18:05;;;;;;;10.60;8.38;;;;;;;;;;10461682;28;20415;-95
2023/08/24 07:23:07;;;;;;;12.53;8.47;;;;;;;;;;10460212;28;20945;-94
2023/08/24 07:28:09;;;;;;;13.57;8.03;;;;;;;;;;10459743;28;20477;-94
2023/08/24 07:33:13;;;;;;;11.50;7.70;;;;;;;;;;10461338;28;20407;-94
2023/08/24 07:38:15;;;;;;;12.60;7.97;;;;;;;;;;10459440;28;20427;-95
2023/08/24 07:43:18;;;;;;;12.67;7.40;;;;;;;;;;10460856;28;20416;-95
2023/08/24 07:48:21;;;;;;;12.03;7.70;;;;;;;;;;10458577;28;20438;-93
2023/08/24 07:53:24;;;;;;;8.93;7.50;;;;;;;;;;10459806;28;20411;-94
2023/08/24 07:58:26;;;;;;;7.77;6.90;;;;;;;;;;10459735;28;20457;-95
2023/08/24 08:03:31;;;;;;;8.50;6.97;;;;;;;;;;10457618;28;20551;-95
2023/08/24 08:08:33;;;;;;;12.63;7.90;;;;;;;;;;10454060;28;20466;-94
2023/08/24 08:13:35;;;;;;;10.07;7.53;;;;;;;;;;10453675;28;21046;-94
2023/08/24 08:18:39;;;;;;;10.40;7.32;;;;;;;;;;10454618;28;20497;-94
2023/08/24 08:23:42;;;;;;;9.35;6.95;;;;;;;;;;10442595;28;21137;-94
2023/08/24 08:28:44;;;;;;;9.50;7.10;;;;;;;;;;10445972;28;20815;-94
2023/08/24 08:33:50;;;;;;;9.23;7.15;;;;;;;;;;10456702;28;20411;-94
2023/08/24 08:38:53;;;;;;;8.40;7.20;;;;;;;;;;10453899;28;20486;-95
2023/08/24 08:44:07;;;;;;;8.98;7.20;;;;;;;;;;10448789;28;20400;-93
2023/08/24 08:49:15;;;;;;;11.50;7.70;;;;;;;;;;10453419;28;20408;-94
2023/08/24 08:54:18;;;;;;;8.80;7.35;;;;;;;;;;10448626;28;20639;-94
2023/08/24 08:59:21;;;;;;;10.90;7.15;;;;;;;;;;10451786;28;20465;-94
2023/08/24 09:04:26;;;;;;;9.07;7.50;;;;;;;;;;10449051;28;20396;-95
2023/08/24 09:09:29;;;;;;;9.17;6.90;;;;;;;;;;10437781;28;20899;-94
2023/08/24 09:14:31;;;;;;;8.27;6.70;;;;;;;;;;10463466;28;20424;-95
2023/08/24 09:19:38;;;;;;;11.00;7.32;;;;;;;;;;10455595;28;21170;-94
2023/08/24 09:24:40;;;;;;;7.77;6.67;;;;;;;;;;10458705;28;20396;-95
2023/08/24 09:29:43;;;;;;;11.18;7.43;;;;;;;;;;10439943;28;20540;-95
2023/08/24 09:34:46;;;;;;;8.10;6.70;;;;;;;;;;10451332;28;20461;-95
2023/08/24 09:39:49;;;;;;;17.23;7.63;;;;;;;;;;10449063;28;20787;-95
2023/08/24 09:44:51;;;;;;;9.00;7.20;;;;;;;;;;10445894;28;20419;-95
2023/08/24 09:49:55;;;;;;;8.35;6.90;;;;;;;;;;10445664;28;20420;-94
2023/08/24 09:55:00;;;;;;;11.82;6.90;;;;;;;;;;10440131;28;20895;-94
2023/08/24 10:00:09;;;;;;;9.40;7.37;;;;;;;;;;10429051;28;20448;-92
2023/08/24 10:05:20;;;;;;;7.63;6.82;;;;;;;;;;10446771;28;20411;-95
2023/08/24 10:10:25;;;;;;;7.22;6.55;;;;;;;;;;10461294;28;20403;-94
2023/08/24 10:15:27;;;;;;;9.57;6.60;;;;;;;;;;10457858;28;20446;-94
2023/08/24 10:20:32;;;;;;;7.90;7.05;;;;;;;;;;10440048;28;20625;-95
2023/08/24 10:26:00;;;;;;;8.60;6.90;;;;;;;;;;10461973;28;20794;-95
2023/08/24 10:37:40;;;;;;;10.80;6.72;;;;;;;;;;10424410;28;20465;-95
2023/08/24 10:42:46;;;;;;;7.10;6.40;;;;;;;;;;10436802;28;20865;-96
2023/08/24 10:47:53;;;;;;;8.80;7.60;;;;;;;;;;10440600;28;20498;-96
2023/08/24 10:52:57;;;;;;;8.70;6.63;;;;;;;;;;10456780;28;20443;-96
2023/08/24 10:58:01;;;;;;;7.03;6.33;;;;;;;;;;10449551;28;20407;-96
2023/08/24 11:03:04;;;;;;;8.52;6.32;;;;;;;;;;10446261;28;20512;-95
2023/08/24 11:08:08;;;;;;;8.45;6.53;;;;;;;;;;10451687;28;20804;-95
2023/08/24 11:13:13;;;;;;;8.30;6.35;;;;;;;;;;10440841;28;20473;-96
2023/08/24 11:18:21;;;;;;;8.70;6.28;;;;;;;;;;10436986;28;20904;-95
2023/08/24 11:23:26;;;;;;;9.15;6.68;;;;;;;;;;10441583;28;20420;-95
2023/08/24 11:28:29;;;;;;;7.20;6.50;;;;;;;;;;10447444;28;20457;-95
2023/08/24 11:33:37;;;;;;;6.90;6.20;;;;;;;;;;10456072;28;20407;-94
2023/08/24 11:38:41;;;;;;;9.37;6.70;;;;;;;;;;10455188;28;20989;-94
2023/08/24 11:43:44;;;;;;;7.60;6.90;;;;;;;;;;10453729;28;20470;-93
2023/08/24 11:48:47;;;;;;;7.72;6.20;;;;;;;;;;10441452;28;20420;-94
2023/08/24 11:53:51;;;;;;;8.97;6.47;;;;;;;;;;10453520;28;20497;-95
2023/08/24 11:58:53;;;;;;;8.27;6.30;;;;;;;;;;10454312;28;20420;-94
2023/08/24 12:03:56;;;;;;;9.02;6.72;;;;;;;;;;10446411;28;20481;-94
2023/08/24 12:09:00;;;;;;;7.05;6.35;;;;;;;;;;10445464;28;20462;-94
2023/08/24 12:14:03;;;;;;;8.50;6.38;;;;;;;;;;10438229;28;20475;-94
2023/08/24 12:19:09;;;;;;;6.55;5.72;;;;;;;;;;10449793;28;20408;-95
2023/08/24 12:24:15;;;;;;;7.72;5.80;;;;;;;;;;10454289;28;20408;-95
2023/08/24 12:29:19;;;;;;;7.55;5.90;;;;;;;;;;10450513;28;20470;-95
2023/08/24 12:34:23;;;;;;;6.40;5.78;;;;;;;;;;10447271;28;20419;-95
2023/08/24 12:39:27;;;;;;;7.32;6.55;;;;;;;;;;10447572;28;20481;-95
2023/08/24 12:44:32;;;;;;;6.70;5.80;;;;;;;;;;10449453;28;20408;-94
2023/08/24 12:49:35;;;;;;;7.20;5.82;;;;;;;;;;10451787;28;20427;-95
2023/08/24 12:54:38;;;;;;;9.07;6.07;;;;;;;;;;10451661;28;20400;-94
2023/08/24 12:59:41;;;;;;;7.13;6.00;;;;;;;;;;10408168;22;20424;-95
2023/08/24 13:04:44;;;;;;;5.97;4.80;;;;;;;;;;10329580;28;20502;-93
2023/08/24 13:09:48;;;;;;;5.72;5.13;;;;;;;;;;10336286;28;20440;-94
2023/08/24 13:14:56;;;;;;;6.78;5.10;;;;;;;;;;10322876;28;20420;-93
2023/08/24 13:20:06;;;;;;;7.97;4.60;;;;;;;;;;10327583;28;20421;-93
2023/08/24 13:25:12;;;;;;;5.35;4.68;;;;;;;;;;10318839;28;20413;-94
2023/08/24 13:30:17;;;;;;;6.20;5.13;;;;;;;;;;10324914;28;20419;-94
2023/08/24 13:35:19;;;;;;;5.80;5.20;;;;;;;;;;10328424;28;20413;-94
2023/08/24 13:40:30;;;;;;;5.80;4.70;;;;;;;;;;10323717;28;20413;-94
2023/08/24 13:45:34;;;;;;;5.68;4.60;;;;;;;;;;10323516;28;20409;-94
2023/08/24 13:50:37;;;;;;;7.15;4.85;;;;;;;;;;10327652;28;20425;-94
2023/08/24 13:55:43;;;;;;;8.30;4.40;;;;;;;;;;10318853;28;20416;-94
2023/08/24 14:00:47;;;;;;;6.68;4.78;;;;;;;;;;10334888;28;20459;-94
2023/08/24 14:05:51;;;;;;;6.25;5.30;;;;;;;;;;10321411;28;20476;-93
2023/08/24 14:10:55;;;;;;;5.05;4.55;;;;;;;;;;10340880;28;20417;-94
2023/08/24 14:16:00;;;;;;;8.13;5.65;;;;;;;;;;10335666;28;20570;-94
2023/08/24 14:21:03;;;;;;;6.25;5.60;;;;;;;;;;10334452;28;20417;-93
2023/08/24 14:26:10;;;;;;;5.82;5.05;;;;;;;;;;10343301;28;20427;-93
2023/08/24 14:31:12;;;;;;;5.80;5.20;;;;;;;;;;10314178;28;20477;-91
2023/08/24 14:36:15;;;;;;;6.18;5.13;;;;;;;;;;10314257;28;20417;-93
2023/08/24 14:41:19;;;;;;;7.83;5.03;;;;;;;;;;10316464;28;20491;-94
2023/08/24 14:46:21;;;;;;;10.70;5.53;;;;;;;;;;10315860;28;20479;-93
2023/08/24 14:51:24;;;;;;;6.68;5.68;;;;;;;;;;10314134;28;20418;-93
2023/08/24 14:56:28;;;;;;;6.40;5.37;;;;;;;;;;10312613;28;20456;-92
2023/08/24 15:01:33;;;;;;;6.00;5.40;;;;;;;;;;10322387;28;20471;-93
2023/08/24 15:06:35;;;;;;;6.50;5.90;;;;;;;;;;10322094;28;20415;-92
2023/08/24 15:11:39;;;;;;;6.30;5.70;;;;;;;;;;10321469;28;20487;-93
2023/08/24 15:16:41;;;;;;;8.32;5.90;;;;;;;;;;10326675;28;20926;-93
2023/08/24 15:21:47;;;;;;;7.27;5.97;;;;;;;;;;10316241;28;20430;-93
2023/08/24 15:26:50;;;;;;;6.43;5.77;;;;;;;;;;10320258;28;20451;-93
2023/08/24 15:31:56;;;;;;;6.85;5.82;;;;;;;;;;10324296;28;20502;-93
2023/08/24 15:36:58;;;;;;;7.33;6.20;;;;;;;;;;10325001;28;20409;-93
2023/08/24 15:42:06;;;;;;;7.67;6.13;;;;;;;;;;10327148;28;20482;-93
2023/08/24 15:47:08;;;;;;;7.40;6.53;;;;;;;;;;10319278;28;20421;-94
2023/08/24 15:52:17;;;;;;;8.85;7.05;;;;;;;;;;10322507;28;20816;-93
2023/08/24 15:57:21;;;;;;;7.72;6.95;;;;;;;;;;10319482;28;20508;-93
2023/08/24 16:02:25;;;;;;;7.93;6.88;;;;;;;;;;10320565;28;20468;-92
2023/08/24 16:07:27;;;;;;;7.67;6.70;;;;;;;;;;10316375;28;20413;-91
2023/08/24 16:12:31;;;;;;;7.35;6.63;;;;;;;;;;10320525;28;20448;-92
2023/08/24 16:17:34;;;;;;;7.53;6.80;;;;;;;;;;10312582;28;20456;-91
2023/08/24 16:22:36;;;;;;;7.85;6.40;;;;;;;;;;10301528;28;20453;-92
2023/08/24 16:27:40;;;;;;;8.00;6.57;;;;;;;;;;10316617;28;20889;-92
2023/08/24 16:32:42;;;;;;;7.57;6.68;;;;;;;;;;10315997;28;20541;-92
2023/08/24 16:37:45;;;;;;;7.78;6.70;;;;;;;;;;10321052;28;20473;-93
2023/08/24 16:42:49;;;;;;;7.07;6.38;;;;;;;;;;10316646;28;20467;-94
2023/08/24 16:47:51;;;;;;;9.43;6.20;;;;;;;;;;10323183;28;21053;-94
2023/08/24 16:52:54;;;;;;;8.17;6.60;;;;;;;;;;10319763;28;20449;-94
2023/08/24 16:57:57;;;;;;;7.40;6.07;;;;;;;;;;10316946;28;20430;-94
2023/08/24 17:03:00;;;;;;;7.10;6.40;;;;;;;;;;10305918;28;20418;-93
2023/08/24 17:08:04;;;;;;;7.20;6.40;;;;;;;;;;10318105;28;20409;-93
2023/08/24 17:13:11;;;;;;;6.77;6.00;;;;;;;;;;10326421;28;20481;-94
2023/08/24 17:18:14;;;;;;;6.30;5.70;;;;;;;;;;10324780;28;20421;-94
2023/08/24 17:23:16;;;;;;;7.13;5.97;;;;;;;;;;10315259;28;20426;-92
2023/08/24 17:28:20;;;;;;;7.90;5.93;;;;;;;;;;10330792;28;20499;-93
2023/08/24 17:33:23;;;;;;;6.77;5.63;;;;;;;;;;10346226;28;20417;-94
2023/08/24 17:38:25;;;;;;;9.37;5.83;;;;;;;;;;10321675;28;20496;-94
2023/08/24 17:43:29;;;;;;;9.23;6.10;;;;;;;;;;10327366;28;20432;-94
2023/08/24 17:48:32;;;;;;;7.53;5.93;;;;;;;;;;10330341;28;20452;-94
2023/08/24 17:53:35;;;;;;;8.90;6.20;;;;;;;;;;10320809;28;20485;-94
2023/08/24 17:58:39;;;;;;;8.15;6.00;;;;;;;;;;10327761;28;20440;-94
2023/08/24 18:03:41;;;;;;;6.37;5.77;;;;;;;;;;10327185;28;20897;-94
2023/08/24 18:08:43;;;;;;;7.68;6.55;;;;;;;;;;10308618;28;21192;-94
2023/08/24 18:13:48;;;;;;;6.93;5.60;;;;;;;;;;10313745;28;20479;-93
2023/08/24 18:18:50;;;;;;;8.40;5.80;;;;;;;;;;10304116;28;20444;-93
2023/08/24 18:23:52;;;;;;;6.50;5.80;;;;;;;;;;10306426;28;20489;-94
2023/08/24 18:28:56;;;;;;;8.35;5.90;;;;;;;;;;10318801;28;20412;-94
2023/08/24 18:33:59;;;;;;;7.47;6.20;;;;;;;;;;10318063;28;20498;-94
2023/08/24 18:39:02;;;;;;;7.22;6.05;;;;;;;;;;10315720;28;20499;-94
2023/08/24 18:44:06;;;;;;;8.90;6.40;;;;;;;;;;10316031;28;20495;-94
2023/08/24 18:49:08;;;;;;;9.20;6.28;;;;;;;;;;10302202;28;20429;-93
2023/08/24 18:54:11;;;;;;;11.50;6.50;;;;;;;;;;10318354;28;20429;-94
2023/08/24 18:59:15;;;;;;;8.73;6.47;;;;;;;;;;10324677;28;20421;-94
2023/08/24 19:04:17;;;;;;;10.97;6.77;;;;;;;;;;10323529;28;20761;-93
2023/08/24 19:09:19;;;;;;;8.73;6.93;;;;;;;;;;10316255;28;20453;-94
2023/08/24 19:14:24;;;;;;;8.88;6.93;;;;;;;;;;10338520;28;20416;-95
2023/08/24 19:19:27;;;;;;;11.23;7.30;;;;;;;;;;10343315;28;20408;-95
2023/08/24 19:24:30;;;;;;;11.77;7.85;;;;;;;;;;10359497;28;20421;-94
2023/08/24 19:29:36;;;;;;;9.65;7.45;;;;;;;;;;10344086;28;20421;-93
2023/08/24 19:34:38;;;;;;;14.43;7.83;;;;;;;;;;10344709;28;20426;-94
2023/08/24 19:39:42;;;;;;;11.17;7.90;;;;;;;;;;10348052;28;20425;-94
2023/08/24 19:44:46;;;;;;;11.20;7.75;;;;;;;;;;10334659;28;20459;-95
2023/08/24 19:49:48;;;;;;;12.48;7.85;;;;;;;;;;10317102;28;20411;-95
2023/08/24 19:54:51;;;;;;;12.05;7.85;;;;;;;;;;10332063;28;20416;-95
2023/08/24 19:59:55;;;;;;;11.75;7.80;;;;;;;;;;10344162;28;20428;-94
2023/08/24 20:04:58;;;;;;;10.87;7.67;;;;;;;;;;10337269;28;20424;-94
2023/08/24 20:10:01;;;;;;;10.70;8.60;;;;;;;;;;10344155;28;20404;-95
2023/08/24 20:15:06;;;;;;;10.18;8.10;;;;;;;;;;10347040;28;20730;-94
2023/08/24 20:20:14;;;;;;;13.02;8.90;;;;;;;;;;10340545;28;20453;-94
2023/08/24 20:25:16;;;;;;;13.20;8.83;;;;;;;;;;10327287;28;20426;-94
2023/08/24 20:30:21;;;;;;;13.17;8.43;;;;;;;;;;10322890;28;20434;-94
2023/08/24 20:35:24;;;;;;;14.02;8.73;;;;;;;;;;10344776;28;20467;-94
2023/08/24 20:40:26;;;;;;;11.43;8.73;;;;;;;;;;10333364;28;20448;-95
2023/08/24 20:45:30;;;;;;;11.50;8.55;;;;;;;;;;10343131;28;20464;-95
2023/08/24 20:50:33;;;;;;;12.85;8.68;;;;;;;;;;10354614;28;20467;-95
2023/08/24 20:55:36;;;;;;;14.25;9.23;;;;;;;;;;10345168;28;20413;-94
2023/08/24 21:00:41;;;;;;;12.90;9.75;;;;;;;;;;10348885;28;20413;-94
2023/08/24 21:05:44;;;;;;;13.40;9.50;;;;;;;;;;10354358;28;20475;-95
2023/08/24 21:10:46;;;;;;;15.17;9.37;;;;;;;;;;10351776;28;20405;-94
2023/08/24 21:15:51;;;;;;;12.93;9.33;;;;;;;;;;10348048;28;20417;-94
2023/08/24 21:20:57;;;;;;;11.95;9.18;;;;;;;;;;10345953;28;20412;-95
2023/08/24 21:26:00;;;;;;;13.57;9.67;;;;;;;;;;10339811;28;20425;-95
2023/08/24 21:31:08;;;;;;;13.70;9.90;;;;;;;;;;10354949;28;20455;-92
2023/08/24 21:36:13;;;;;;;14.95;10.23;;;;;;;;;;10343551;28;20425;-94
2023/08/24 21:41:15;;;;;;;11.70;9.57;;;;;;;;;;10338209;28;20491;-95
2023/08/24 21:46:20;;;;;;;12.15;9.82;;;;;;;;;;10350793;28;20534;-94
2023/08/24 21:51:23;;;;;;;12.50;9.45;;;;;;;;;;10351809;28;20459;-94
2023/08/24 21:56:26;;;;;;;11.18;9.57;;;;;;;;;;10350653;28;20409;-94
2023/08/24 22:01:30;;;;;;;12.93;9.50;;;;;;;;;;10350719;28;20476;-95
2023/08/24 22:06:32;;;;;;;13.88;9.55;;;;;;;;;;10345477;28;20475;-96
2023/08/24 22:11:35;;;;;;;12.25;10.18;;;;;;;;;;10340687;28;20892;-94
2023/08/24 22:16:39;;;;;;;12.32;9.52;;;;;;;;;;10333932;28;20417;-95
2023/08/24 22:21:41;;;;;;;10.97;9.30;;;;;;;;;;10329467;28;20436;-94
2023/08/24 22:26:45;;;;;;;11.43;8.65;;;;;;;;;;10327012;28;20896;-94
2023/08/24 22:31:49;;;;;;;11.52;9.02;;;;;;;;;;10343704;28;20444;-95
2023/08/24 22:36:51;;;;;;;10.23;8.33;;;;;;;;;;10328019;28;20394;-94
2023/08/24 22:41:54;;;;;;;10.88;8.48;;;;;;;;;;10338501;28;20440;-94
2023/08/24 22:46:58;;;;;;;10.40;8.43;;;;;;;;;;10336638;28;20428;-94
2023/08/24 22:52:01;;;;;;;11.80;8.45;;;;;;;;;;10327614;28;20415;-94
2023/08/24 22:57:04;;;;;;;11.65;8.35;;;;;;;;;;10344927;28;20409;-94
2023/08/24 23:02:08;;;;;;;10.57;8.53;;;;;;;;;;10336038;28;20406;-95
2023/08/24 23:07:11;;;;;;;12.15;9.00;;;;;;;;;;10330880;28;20448;-94
2023/08/24 23:12:15;;;;;;;11.20;8.77;;;;;;;;;;10333428;28;20415;-95
2023/08/24 23:17:21;;;;;;;10.93;8.68;;;;;;;;;;10330570;28;20424;-94
2023/08/24 23:22:23;;;;;;;10.57;8.63;;;;;;;;;;10332531;28;20444;-95
2023/08/24 23:27:26;;;;;;;11.95;9.07;;;;;;;;;;10340597;28;20416;-95
2023/08/24 23:32:30;;;;;;;11.05;8.82;;;;;;;;;;10330625;28;20421;-94
2023/08/24 23:37:33;;;;;;;10.10;8.40;;;;;;;;;;10328538;28;20401;-94
2023/08/24 23:42:35;;;;;;;11.25;8.90;;;;;;;;;;10337471;28;20450;-95
2023/08/24 23:47:39;;;;;;;12.00;9.50;;;;;;;;;;10334770;28;20416;-95
2023/08/24 23:52:42;;;;;;;13.98;9.77;;;;;;;;;;10334719;28;20832;-94
2023/08/24 23:57:44;;;;;;;15.15;10.98;;;;;;;;;;10333656;28;20450;-95
